sensor_id;sensor_type;location;lat;lon;timestamp;temperature;humidity
35970;DHT22;22448;51.298;6.430;2023-11-22T00:01:52;5.80;99.90
35970;DHT22;22448;51.298;6.430;2023-11-22T00:04:19;5.80;99.90
35970;DHT22;22448;51.298;6.430;2023-11-22T00:06:47;5.80;99.90
35970;DHT22;22448;51.298;6.430;2023-11-22T00:09:14;5.80;99.90
35970;DHT22;22448;51.298;6.430;2023-11-22T00:11:41;5.80;99.90
35970;DHT22;22448;51.298;6.430;2023-11-22T00:14:08;5.80;99.90
35970;DHT22;22448;51.298;6.430;2023-11-22T00:16:35;5.80;99.90
35970;DHT22;22448;51.298;6.430;2023-11-22T00:19:04;5.80;99.90
35970;DHT22;22448;51.298;6.430;2023-11-22T00:21:33;5.70;99.90
35970;DHT22;22448;51.298;6.430;2023-11-22T00:24:00;5.80;99.90
35970;DHT22;22448;51.298;6.430;2023-11-22T00:26:27;5.80;99.90
35970;DHT22;22448;51.298;6.430;2023-11-22T00:28:58;5.80;99.90
35970;DHT22;22448;51.298;6.430;2023-11-22T00:31:39;5.70;99.90
35970;DHT22;22448;51.298;6.430;2023-11-22T00:39:07;5.70;99.90
35970;DHT22;22448;51.298;6.430;2023-11-22T00:41:52;5.70;99.90
35970;DHT22;22448;51.298;6.430;2023-11-22T00:44:20;5.70;99.90
35970;DHT22;22448;51.298;6.430;2023-11-22T00:46:48;5.70;99.90
35970;DHT22;22448;51.298;6.430;2023-11-22T00:49:15;5.70;99.90
35970;DHT22;22448;51.298;6.430;2023-11-22T00:51:42;5.60;99.90
35970;DHT22;22448;51.298;6.430;2023-11-22T00:54:09;5.60;99.90
35970;DHT22;22448;51.298;6.430;2023-11-22T00:56:36;5.60;99.90
35970;DHT22;22448;51.298;6.430;2023-11-22T00:59:03;5.50;99.90
35970;DHT22;22448;51.298;6.430;2023-11-22T01:01:31;5.50;99.90
35970;DHT22;22448;51.298;6.430;2023-11-22T01:03:58;5.40;99.90
35970;DHT22;22448;51.298;6.430;2023-11-22T01:06:26;5.40;99.90
35970;DHT22;22448;51.298;6.430;2023-11-22T01:08:53;5.30;99.90
35970;DHT22;22448;51.298;6.430;2023-11-22T01:11:20;5.30;99.90
35970;DHT22;22448;51.298;6.430;2023-11-22T01:13:48;5.30;99.90
35970;DHT22;22448;51.298;6.430;2023-11-22T01:16:15;5.30;99.90
35970;DHT22;22448;51.298;6.430;2023-11-22T01:18:43;5.30;99.90
35970;DHT22;22448;51.298;6.430;2023-11-22T01:21:12;5.30;99.90
35970;DHT22;22448;51.298;6.430;2023-11-22T01:23:39;5.20;99.90
35970;DHT22;22448;51.298;6.430;2023-11-22T01:26:06;5.20;99.90
35970;DHT22;22448;51.298;6.430;2023-11-22T01:28:33;5.10;99.90
35970;DHT22;22448;51.298;6.430;2023-11-22T01:31:01;5.00;99.90
35970;DHT22;22448;51.298;6.430;2023-11-22T01:33:30;4.90;99.90
35970;DHT22;22448;51.298;6.430;2023-11-22T01:35:59;4.80;99.90
35970;DHT22;22448;51.298;6.430;2023-11-22T01:38:26;4.70;99.90
35970;DHT22;22448;51.298;6.430;2023-11-22T01:40:55;4.60;99.90
35970;DHT22;22448;51.298;6.430;2023-11-22T01:43:26;4.50;99.90
35970;DHT22;22448;51.298;6.430;2023-11-22T01:45:55;4.40;99.90
35970;DHT22;22448;51.298;6.430;2023-11-22T01:48:23;4.30;99.90
35970;DHT22;22448;51.298;6.430;2023-11-22T01:50:51;4.30;99.90
35970;DHT22;22448;51.298;6.430;2023-11-22T01:53:20;4.20;99.90
35970;DHT22;22448;51.298;6.430;2023-11-22T01:55:48;4.10;99.90
35970;DHT22;22448;51.298;6.430;2023-11-22T01:58:16;4.10;99.90
35970;DHT22;22448;51.298;6.430;2023-11-22T02:00:48;4.00;99.90
35970;DHT22;22448;51.298;6.430;2023-11-22T02:03:16;4.00;99.90
35970;DHT22;22448;51.298;6.430;2023-11-22T02:05:44;4.00;99.90
35970;DHT22;22448;51.298;6.430;2023-11-22T02:08:12;3.90;99.90
35970;DHT22;22448;51.298;6.430;2023-11-22T02:10:40;3.90;99.90
35970;DHT22;22448;51.298;6.430;2023-11-22T02:20:49;3.60;99.90
35970;DHT22;22448;51.298;6.430;2023-11-22T02:28:03;3.50;99.90
35970;DHT22;22448;51.298;6.430;2023-11-22T02:36:33;3.40;99.90
35970;DHT22;22448;51.298;6.430;2023-11-22T02:58:05;3.20;99.90
35970;DHT22;22448;51.298;6.430;2023-11-22T03:19:37;2.80;99.90
35970;DHT22;22448;51.298;6.430;2023-11-22T03:22:04;2.90;99.90
35970;DHT22;22448;51.298;6.430;2023-11-22T03:24:33;2.90;99.90
35970;DHT22;22448;51.298;6.430;2023-11-22T03:27:07;2.90;99.90
35970;DHT22;22448;51.298;6.430;2023-11-22T10:07:24;4.70;99.90
35970;DHT22;22448;51.298;6.430;2023-11-22T10:09:52;4.80;99.90
35970;DHT22;22448;51.298;6.430;2023-11-22T10:12:19;4.80;99.90
35970;DHT22;22448;51.298;6.430;2023-11-22T10:14:48;4.80;99.90
35970;DHT22;22448;51.298;6.430;2023-11-22T10:17:15;5.00;99.90
35970;DHT22;22448;51.298;6.430;2023-11-22T10:19:43;5.10;99.90
35970;DHT22;22448;51.298;6.430;2023-11-22T10:22:10;5.20;99.90
35970;DHT22;22448;51.298;6.430;2023-11-22T10:24:43;5.20;99.90
35970;DHT22;22448;51.298;6.430;2023-11-22T10:27:10;5.20;99.90
35970;DHT22;22448;51.298;6.430;2023-11-22T10:29:37;5.10;99.90
35970;DHT22;22448;51.298;6.430;2023-11-22T10:32:05;5.10;99.90
35970;DHT22;22448;51.298;6.430;2023-11-22T10:34:32;5.10;99.90
35970;DHT22;22448;51.298;6.430;2023-11-22T10:37:02;5.20;99.90
35970;DHT22;22448;51.298;6.430;2023-11-22T10:39:30;5.40;99.90
35970;DHT22;22448;51.298;6.430;2023-11-22T10:41:59;5.40;99.90
35970;DHT22;22448;51.298;6.430;2023-11-22T10:44:26;5.50;99.90
35970;DHT22;22448;51.298;6.430;2023-11-22T10:46:54;5.60;99.90
35970;DHT22;22448;51.298;6.430;2023-11-22T10:49:21;5.60;99.90
35970;DHT22;22448;51.298;6.430;2023-11-22T10:51:51;5.60;99.90
35970;DHT22;22448;51.298;6.430;2023-11-22T10:54:21;5.70;99.90
35970;DHT22;22448;51.298;6.430;2023-11-22T10:56:54;5.70;99.90
35970;DHT22;22448;51.298;6.430;2023-11-22T10:59:23;5.80;99.90
35970;DHT22;22448;51.298;6.430;2023-11-22T11:01:53;5.70;99.90
35970;DHT22;22448;51.298;6.430;2023-11-22T11:04:43;5.70;99.90
35970;DHT22;22448;51.298;6.430;2023-11-22T11:07:15;5.80;99.90
35970;DHT22;22448;51.298;6.430;2023-11-22T11:09:45;5.90;99.90
35970;DHT22;22448;51.298;6.430;2023-11-22T11:12:13;5.90;99.90
35970;DHT22;22448;51.298;6.430;2023-11-22T11:14:41;6.00;99.90
35970;DHT22;22448;51.298;6.430;2023-11-22T11:17:08;6.00;99.90
35970;DHT22;22448;51.298;6.430;2023-11-22T11:19:36;6.10;99.90
35970;DHT22;22448;51.298;6.430;2023-11-22T11:22:06;6.10;99.90
35970;DHT22;22448;51.298;6.430;2023-11-22T11:25:01;6.10;99.90
35970;DHT22;22448;51.298;6.430;2023-11-22T11:27:33;6.00;99.90
35970;DHT22;22448;51.298;6.430;2023-11-22T11:33:01;6.10;99.90
35970;DHT22;22448;51.298;6.430;2023-11-22T11:35:48;6.10;99.90
35970;DHT22;22448;51.298;6.430;2023-11-22T11:38:36;6.10;99.90
35970;DHT22;22448;51.298;6.430;2023-11-22T11:41:09;6.00;99.90
35970;DHT22;22448;51.298;6.430;2023-11-22T11:43:47;6.00;99.90
35970;DHT22;22448;51.298;6.430;2023-11-22T11:46:18;6.00;99.90
35970;DHT22;22448;51.298;6.430;2023-11-22T11:48:48;6.00;99.90
35970;DHT22;22448;51.298;6.430;2023-11-22T11:51:15;6.10;99.90
35970;DHT22;22448;51.298;6.430;2023-11-22T11:53:44;6.20;99.90
35970;DHT22;22448;51.298;6.430;2023-11-22T11:56:12;6.30;99.90
35970;DHT22;22448;51.298;6.430;2023-11-22T11:58:42;6.40;99.90
35970;DHT22;22448;51.298;6.430;2023-11-22T12:01:14;6.40;99.90
35970;DHT22;22448;51.298;6.430;2023-11-22T12:03:42;6.50;99.90
35970;DHT22;22448;51.298;6.430;2023-11-22T12:06:17;6.60;99.90
35970;DHT22;22448;51.298;6.430;2023-11-22T12:08:46;6.50;99.90
35970;DHT22;22448;51.298;6.430;2023-11-22T12:11:15;6.40;99.90
35970;DHT22;22448;51.298;6.430;2023-11-22T12:13:43;6.40;99.90
35970;DHT22;22448;51.298;6.430;2023-11-22T12:16:14;6.20;99.90
35970;DHT22;22448;51.298;6.430;2023-11-22T12:18:45;6.10;99.90
35970;DHT22;22448;51.298;6.430;2023-11-22T12:21:13;5.90;99.90
35970;DHT22;22448;51.298;6.430;2023-11-22T12:23:41;5.80;99.90
35970;DHT22;22448;51.298;6.430;2023-11-22T12:26:12;5.70;99.90
35970;DHT22;22448;51.298;6.430;2023-11-22T12:28:41;5.70;99.90
35970;DHT22;22448;51.298;6.430;2023-11-22T12:31:19;5.70;99.90
35970;DHT22;22448;51.298;6.430;2023-11-22T12:33:47;5.70;99.90
35970;DHT22;22448;51.298;6.430;2023-11-22T12:36:18;5.70;99.90
35970;DHT22;22448;51.298;6.430;2023-11-22T12:38:47;5.70;99.90
35970;DHT22;22448;51.298;6.430;2023-11-22T12:41:14;5.80;99.90
35970;DHT22;22448;51.298;6.430;2023-11-22T12:43:41;5.80;99.90
35970;DHT22;22448;51.298;6.430;2023-11-22T12:46:16;5.90;99.90
35970;DHT22;22448;51.298;6.430;2023-11-22T12:48:45;6.00;99.90
35970;DHT22;22448;51.298;6.430;2023-11-22T12:51:15;6.10;99.90
35970;DHT22;22448;51.298;6.430;2023-11-22T12:53:47;6.20;99.90
35970;DHT22;22448;51.298;6.430;2023-11-22T12:56:15;6.20;99.90
35970;DHT22;22448;51.298;6.430;2023-11-22T12:58:42;6.20;99.90
35970;DHT22;22448;51.298;6.430;2023-11-22T13:01:09;6.30;99.90
35970;DHT22;22448;51.298;6.430;2023-11-22T13:03:36;6.20;99.90
35970;DHT22;22448;51.298;6.430;2023-11-22T13:06:04;6.10;99.90
35970;DHT22;22448;51.298;6.430;2023-11-22T13:08:31;6.10;99.90
35970;DHT22;22448;51.298;6.430;2023-11-22T13:10:59;6.00;99.90
35970;DHT22;22448;51.298;6.430;2023-11-22T13:13:28;6.00;99.90
35970;DHT22;22448;51.298;6.430;2023-11-22T13:15:57;5.90;99.90
35970;DHT22;22448;51.298;6.430;2023-11-22T13:18:24;5.90;99.90
35970;DHT22;22448;51.298;6.430;2023-11-22T13:20:53;6.00;99.90
35970;DHT22;22448;51.298;6.430;2023-11-22T13:23:20;6.00;99.90
35970;DHT22;22448;51.298;6.430;2023-11-22T13:25:48;6.10;99.90
35970;DHT22;22448;51.298;6.430;2023-11-22T13:28:15;6.20;99.90
35970;DHT22;22448;51.298;6.430;2023-11-22T13:30:44;6.30;99.90
35970;DHT22;22448;51.298;6.430;2023-11-22T13:33:11;6.30;99.90
35970;DHT22;22448;51.298;6.430;2023-11-22T13:35:42;6.50;99.90
35970;DHT22;22448;51.298;6.430;2023-11-22T13:38:11;6.50;99.90
35970;DHT22;22448;51.298;6.430;2023-11-22T13:40:39;6.60;99.90
35970;DHT22;22448;51.298;6.430;2023-11-22T13:43:07;6.60;99.90
35970;DHT22;22448;51.298;6.430;2023-11-22T13:45:35;6.70;99.90
35970;DHT22;22448;51.298;6.430;2023-11-22T13:48:05;6.70;99.90
35970;DHT22;22448;51.298;6.430;2023-11-22T13:50:34;6.70;99.90
35970;DHT22;22448;51.298;6.430;2023-11-22T13:53:02;6.60;99.90
35970;DHT22;22448;51.298;6.430;2023-11-22T13:55:31;6.50;99.90
35970;DHT22;22448;51.298;6.430;2023-11-22T13:58:00;6.50;99.90
35970;DHT22;22448;51.298;6.430;2023-11-22T14:00:29;6.40;99.90
35970;DHT22;22448;51.298;6.430;2023-11-22T14:03:01;6.30;99.90
35970;DHT22;22448;51.298;6.430;2023-11-22T14:05:36;6.20;99.90
35970;DHT22;22448;51.298;6.430;2023-11-22T14:08:06;6.20;99.90
35970;DHT22;22448;51.298;6.430;2023-11-22T14:10:33;6.10;99.90
35970;DHT22;22448;51.298;6.430;2023-11-22T14:13:01;6.10;99.90
35970;DHT22;22448;51.298;6.430;2023-11-22T14:15:30;6.00;99.90
35970;DHT22;22448;51.298;6.430;2023-11-22T14:17:58;6.00;99.90
35970;DHT22;22448;51.298;6.430;2023-11-22T14:20:26;6.00;99.90
35970;DHT22;22448;51.298;6.430;2023-11-22T14:22:53;6.00;99.90
35970;DHT22;22448;51.298;6.430;2023-11-22T14:25:21;6.00;99.90
35970;DHT22;22448;51.298;6.430;2023-11-22T14:27:48;6.00;99.90
35970;DHT22;22448;51.298;6.430;2023-11-22T14:30:20;5.90;99.90
35970;DHT22;22448;51.298;6.430;2023-11-22T14:32:48;5.90;99.90
35970;DHT22;22448;51.298;6.430;2023-11-22T14:35:18;5.90;99.90
35970;DHT22;22448;51.298;6.430;2023-11-22T14:37:46;5.90;99.90
35970;DHT22;22448;51.298;6.430;2023-11-22T14:40:14;5.90;99.90
35970;DHT22;22448;51.298;6.430;2023-11-22T14:42:43;5.80;99.90
35970;DHT22;22448;51.298;6.430;2023-11-22T14:45:12;5.80;99.90
35970;DHT22;22448;51.298;6.430;2023-11-22T14:47:39;5.80;99.90
35970;DHT22;22448;51.298;6.430;2023-11-22T14:50:08;5.80;99.90
35970;DHT22;22448;51.298;6.430;2023-11-22T14:52:39;5.70;99.90
35970;DHT22;22448;51.298;6.430;2023-11-22T14:55:07;5.70;99.90
35970;DHT22;22448;51.298;6.430;2023-11-22T14:57:36;5.70;99.90
35970;DHT22;22448;51.298;6.430;2023-11-22T15:00:05;5.60;99.90
35970;DHT22;22448;51.298;6.430;2023-11-22T15:02:36;5.60;99.90
35970;DHT22;22448;51.298;6.430;2023-11-22T15:05:04;5.60;99.90
35970;DHT22;22448;51.298;6.430;2023-11-22T15:07:32;5.50;99.90
35970;DHT22;22448;51.298;6.430;2023-11-22T15:10:00;5.50;99.90
35970;DHT22;22448;51.298;6.430;2023-11-22T15:12:27;5.50;99.90
35970;DHT22;22448;51.298;6.430;2023-11-22T15:14:57;5.50;99.90
35970;DHT22;22448;51.298;6.430;2023-11-22T15:17:24;5.40;99.90
35970;DHT22;22448;51.298;6.430;2023-11-22T15:19:51;5.50;99.90
35970;DHT22;22448;51.298;6.430;2023-11-22T15:22:18;5.40;99.90
35970;DHT22;22448;51.298;6.430;2023-11-22T15:24:45;5.40;99.90
35970;DHT22;22448;51.298;6.430;2023-11-22T15:27:12;5.40;99.90
35970;DHT22;22448;51.298;6.430;2023-11-22T15:29:39;5.40;99.90
35970;DHT22;22448;51.298;6.430;2023-11-22T15:32:07;5.40;99.90
35970;DHT22;22448;51.298;6.430;2023-11-22T15:34:34;5.40;99.90
35970;DHT22;22448;51.298;6.430;2023-11-22T15:37:00;5.40;99.90
35970;DHT22;22448;51.298;6.430;2023-11-22T15:39:28;5.30;99.90
35970;DHT22;22448;51.298;6.430;2023-11-22T15:41:55;5.30;99.90
35970;DHT22;22448;51.298;6.430;2023-11-22T15:44:22;5.30;99.90
35970;DHT22;22448;51.298;6.430;2023-11-22T15:46:49;5.30;99.90
35970;DHT22;22448;51.298;6.430;2023-11-22T15:49:16;5.30;99.90
35970;DHT22;22448;51.298;6.430;2023-11-22T15:51:43;5.30;99.90
35970;DHT22;22448;51.298;6.430;2023-11-22T15:54:10;5.20;99.90
35970;DHT22;22448;51.298;6.430;2023-11-22T15:56:37;5.20;99.90
35970;DHT22;22448;51.298;6.430;2023-11-22T15:59:04;5.30;99.90
35970;DHT22;22448;51.298;6.430;2023-11-22T16:01:31;5.20;99.90
35970;DHT22;22448;51.298;6.430;2023-11-22T16:03:59;5.20;99.90
35970;DHT22;22448;51.298;6.430;2023-11-22T16:06:26;5.30;99.90
35970;DHT22;22448;51.298;6.430;2023-11-22T16:08:55;5.20;99.90
35970;DHT22;22448;51.298;6.430;2023-11-22T16:11:23;5.20;99.90
35970;DHT22;22448;51.298;6.430;2023-11-22T16:13:50;5.20;99.90
35970;DHT22;22448;51.298;6.430;2023-11-22T16:16:17;5.20;99.90
35970;DHT22;22448;51.298;6.430;2023-11-22T16:18:45;5.20;99.90
35970;DHT22;22448;51.298;6.430;2023-11-22T16:21:12;5.20;99.90
35970;DHT22;22448;51.298;6.430;2023-11-22T16:23:40;5.20;99.90
35970;DHT22;22448;51.298;6.430;2023-11-22T16:26:07;5.20;99.90
35970;DHT22;22448;51.298;6.430;2023-11-22T16:28:34;5.20;99.90
35970;DHT22;22448;51.298;6.430;2023-11-22T16:31:01;5.10;99.90
35970;DHT22;22448;51.298;6.430;2023-11-22T16:33:30;5.10;99.90
35970;DHT22;22448;51.298;6.430;2023-11-22T16:35:58;5.10;99.90
35970;DHT22;22448;51.298;6.430;2023-11-22T16:38:25;5.10;99.90
35970;DHT22;22448;51.298;6.430;2023-11-22T16:40:52;5.10;99.90
35970;DHT22;22448;51.298;6.430;2023-11-22T16:43:20;5.10;99.90
35970;DHT22;22448;51.298;6.430;2023-11-22T16:45:48;5.10;99.90
35970;DHT22;22448;51.298;6.430;2023-11-22T16:48:19;5.10;99.90
35970;DHT22;22448;51.298;6.430;2023-11-22T16:50:46;5.10;99.90
35970;DHT22;22448;51.298;6.430;2023-11-22T16:53:13;5.10;99.90
35970;DHT22;22448;51.298;6.430;2023-11-22T16:55:44;5.10;99.90
35970;DHT22;22448;51.298;6.430;2023-11-22T16:58:11;5.10;99.90
35970;DHT22;22448;51.298;6.430;2023-11-22T17:00:38;5.10;99.90
35970;DHT22;22448;51.298;6.430;2023-11-22T17:03:05;5.10;99.90
35970;DHT22;22448;51.298;6.430;2023-11-22T17:05:33;5.10;99.90
35970;DHT22;22448;51.298;6.430;2023-11-22T17:08:00;5.10;99.90
35970;DHT22;22448;51.298;6.430;2023-11-22T17:10:30;5.10;99.90
35970;DHT22;22448;51.298;6.430;2023-11-22T17:13:13;5.10;99.90
35970;DHT22;22448;51.298;6.430;2023-11-22T17:15:41;5.10;99.90
35970;DHT22;22448;51.298;6.430;2023-11-22T17:18:10;5.10;99.90
35970;DHT22;22448;51.298;6.430;2023-11-22T17:20:38;5.20;99.90
35970;DHT22;22448;51.298;6.430;2023-11-22T17:23:05;5.20;99.90
35970;DHT22;22448;51.298;6.430;2023-11-22T17:25:32;5.20;99.90
35970;DHT22;22448;51.298;6.430;2023-11-22T17:27:59;5.20;99.90
35970;DHT22;22448;51.298;6.430;2023-11-22T17:30:26;5.10;99.90
35970;DHT22;22448;51.298;6.430;2023-11-22T17:32:53;5.20;99.90
35970;DHT22;22448;51.298;6.430;2023-11-22T17:35:21;5.10;99.90
35970;DHT22;22448;51.298;6.430;2023-11-22T17:37:48;5.10;99.90
35970;DHT22;22448;51.298;6.430;2023-11-22T17:40:24;5.10;99.90
35970;DHT22;22448;51.298;6.430;2023-11-22T17:42:52;5.10;99.90
35970;DHT22;22448;51.298;6.430;2023-11-22T17:45:19;5.10;99.90
35970;DHT22;22448;51.298;6.430;2023-11-22T17:47:46;5.10;99.90
35970;DHT22;22448;51.298;6.430;2023-11-22T17:50:14;5.10;99.90
35970;DHT22;22448;51.298;6.430;2023-11-22T17:52:45;5.10;99.90
35970;DHT22;22448;51.298;6.430;2023-11-22T17:55:13;5.10;99.90
35970;DHT22;22448;51.298;6.430;2023-11-22T17:57:40;5.00;99.90
35970;DHT22;22448;51.298;6.430;2023-11-22T18:00:08;5.00;99.90
35970;DHT22;22448;51.298;6.430;2023-11-22T18:02:40;5.00;99.90
35970;DHT22;22448;51.298;6.430;2023-11-22T18:05:07;5.00;99.90
35970;DHT22;22448;51.298;6.430;2023-11-22T18:07:35;4.90;99.90
35970;DHT22;22448;51.298;6.430;2023-11-22T18:10:05;4.90;99.90
35970;DHT22;22448;51.298;6.430;2023-11-22T18:12:32;4.90;99.90
35970;DHT22;22448;51.298;6.430;2023-11-22T18:14:59;4.90;99.90
35970;DHT22;22448;51.298;6.430;2023-11-22T18:17:26;4.90;99.90
35970;DHT22;22448;51.298;6.430;2023-11-22T18:19:54;4.80;99.90
35970;DHT22;22448;51.298;6.430;2023-11-22T18:22:21;4.70;99.90
35970;DHT22;22448;51.298;6.430;2023-11-22T18:24:50;4.70;99.90
35970;DHT22;22448;51.298;6.430;2023-11-22T18:27:17;4.60;99.90
35970;DHT22;22448;51.298;6.430;2023-11-22T18:29:44;4.60;99.90
35970;DHT22;22448;51.298;6.430;2023-11-22T18:32:11;4.60;99.90
35970;DHT22;22448;51.298;6.430;2023-11-22T18:34:40;4.60;99.90
35970;DHT22;22448;51.298;6.430;2023-11-22T18:37:07;4.60;99.90
35970;DHT22;22448;51.298;6.430;2023-11-22T18:39:34;4.70;99.90
35970;DHT22;22448;51.298;6.430;2023-11-22T18:42:02;4.70;99.90
35970;DHT22;22448;51.298;6.430;2023-11-22T18:44:29;4.80;99.90
35970;DHT22;22448;51.298;6.430;2023-11-22T18:46:57;4.80;99.90
35970;DHT22;22448;51.298;6.430;2023-11-22T18:49:25;4.80;99.90
35970;DHT22;22448;51.298;6.430;2023-11-22T18:51:54;4.80;99.90
35970;DHT22;22448;51.298;6.430;2023-11-22T18:54:21;4.80;99.90
35970;DHT22;22448;51.298;6.430;2023-11-22T18:56:48;4.90;99.90
35970;DHT22;22448;51.298;6.430;2023-11-22T18:59:16;4.90;99.90
35970;DHT22;22448;51.298;6.430;2023-11-22T19:01:48;4.90;99.90
35970;DHT22;22448;51.298;6.430;2023-11-22T19:04:16;4.90;99.90
35970;DHT22;22448;51.298;6.430;2023-11-22T19:06:44;4.90;99.90
35970;DHT22;22448;51.298;6.430;2023-11-22T19:09:11;4.80;99.90
35970;DHT22;22448;51.298;6.430;2023-11-22T19:11:39;4.80;99.90
35970;DHT22;22448;51.298;6.430;2023-11-22T19:14:06;4.80;99.90
35970;DHT22;22448;51.298;6.430;2023-11-22T19:16:34;4.80;99.90
35970;DHT22;22448;51.298;6.430;2023-11-22T19:19:02;4.80;99.90
35970;DHT22;22448;51.298;6.430;2023-11-22T19:21:29;4.70;99.90
35970;DHT22;22448;51.298;6.430;2023-11-22T19:23:58;4.70;99.90
35970;DHT22;22448;51.298;6.430;2023-11-22T19:26:28;4.60;99.90
35970;DHT22;22448;51.298;6.430;2023-11-22T19:28:57;4.60;99.90
35970;DHT22;22448;51.298;6.430;2023-11-22T19:31:25;4.60;99.90
35970;DHT22;22448;51.298;6.430;2023-11-22T19:33:53;4.60;99.90
35970;DHT22;22448;51.298;6.430;2023-11-22T19:36:22;4.60;99.90
35970;DHT22;22448;51.298;6.430;2023-11-22T19:38:49;4.60;99.90
35970;DHT22;22448;51.298;6.430;2023-11-22T19:41:20;4.60;99.90
35970;DHT22;22448;51.298;6.430;2023-11-22T19:43:51;4.60;99.90
35970;DHT22;22448;51.298;6.430;2023-11-22T19:46:37;4.70;99.90
35970;DHT22;22448;51.298;6.430;2023-11-22T19:49:08;4.70;99.90
35970;DHT22;22448;51.298;6.430;2023-11-22T19:51:37;4.70;99.90
35970;DHT22;22448;51.298;6.430;2023-11-22T19:54:06;4.60;99.90
35970;DHT22;22448;51.298;6.430;2023-11-22T19:56:35;4.60;99.90
35970;DHT22;22448;51.298;6.430;2023-11-22T19:59:02;4.60;99.90
35970;DHT22;22448;51.298;6.430;2023-11-22T20:01:30;4.60;99.90
35970;DHT22;22448;51.298;6.430;2023-11-22T20:03:57;4.60;99.90
35970;DHT22;22448;51.298;6.430;2023-11-22T20:06:24;4.60;99.90
35970;DHT22;22448;51.298;6.430;2023-11-22T20:08:54;4.60;99.90
35970;DHT22;22448;51.298;6.430;2023-11-22T20:11:21;4.60;99.90
35970;DHT22;22448;51.298;6.430;2023-11-22T20:13:48;4.60;99.90
35970;DHT22;22448;51.298;6.430;2023-11-22T20:16:16;4.60;99.90
35970;DHT22;22448;51.298;6.430;2023-11-22T20:18:43;4.70;99.90
35970;DHT22;22448;51.298;6.430;2023-11-22T20:21:11;4.70;99.90
35970;DHT22;22448;51.298;6.430;2023-11-22T20:23:39;4.70;99.90
35970;DHT22;22448;51.298;6.430;2023-11-22T20:26:07;4.70;99.90
35970;DHT22;22448;51.298;6.430;2023-11-22T20:28:34;4.70;99.90
35970;DHT22;22448;51.298;6.430;2023-11-22T20:31:01;4.70;99.90
35970;DHT22;22448;51.298;6.430;2023-11-22T20:33:29;4.80;99.90
35970;DHT22;22448;51.298;6.430;2023-11-22T20:35:56;4.70;99.90
35970;DHT22;22448;51.298;6.430;2023-11-22T20:38:23;4.70;99.90
35970;DHT22;22448;51.298;6.430;2023-11-22T20:40:50;4.70;99.90
35970;DHT22;22448;51.298;6.430;2023-11-22T20:43:18;4.70;99.90
35970;DHT22;22448;51.298;6.430;2023-11-22T20:45:45;4.60;99.90
35970;DHT22;22448;51.298;6.430;2023-11-22T20:48:13;4.60;99.90
35970;DHT22;22448;51.298;6.430;2023-11-22T20:50:40;4.60;99.90
35970;DHT22;22448;51.298;6.430;2023-11-22T20:53:09;4.60;99.90
35970;DHT22;22448;51.298;6.430;2023-11-22T20:55:36;4.60;99.90
35970;DHT22;22448;51.298;6.430;2023-11-22T20:58:03;4.50;99.90
35970;DHT22;22448;51.298;6.430;2023-11-22T21:00:30;4.50;99.90
35970;DHT22;22448;51.298;6.430;2023-11-22T21:02:57;4.50;99.90
35970;DHT22;22448;51.298;6.430;2023-11-22T21:05:24;4.50;99.90
35970;DHT22;22448;51.298;6.430;2023-11-22T21:07:51;4.50;99.90
35970;DHT22;22448;51.298;6.430;2023-11-22T21:10:19;4.50;99.90
35970;DHT22;22448;51.298;6.430;2023-11-22T21:12:46;4.40;99.90
35970;DHT22;22448;51.298;6.430;2023-11-22T21:15:13;4.40;99.90
35970;DHT22;22448;51.298;6.430;2023-11-22T21:17:40;4.40;99.90
35970;DHT22;22448;51.298;6.430;2023-11-22T21:20:09;4.40;99.90
35970;DHT22;22448;51.298;6.430;2023-11-22T21:22:39;4.40;99.90
35970;DHT22;22448;51.298;6.430;2023-11-22T21:25:06;4.40;99.90
35970;DHT22;22448;51.298;6.430;2023-11-22T21:27:35;4.50;99.90
35970;DHT22;22448;51.298;6.430;2023-11-22T21:30:02;4.60;99.90
35970;DHT22;22448;51.298;6.430;2023-11-22T21:32:30;4.60;99.90
35970;DHT22;22448;51.298;6.430;2023-11-22T21:34:57;4.70;99.90
35970;DHT22;22448;51.298;6.430;2023-11-22T21:37:24;4.80;99.90
35970;DHT22;22448;51.298;6.430;2023-11-22T21:39:51;4.80;99.90
35970;DHT22;22448;51.298;6.430;2023-11-22T21:42:18;4.80;99.90
35970;DHT22;22448;51.298;6.430;2023-11-22T21:44:46;4.90;99.90
35970;DHT22;22448;51.298;6.430;2023-11-22T21:47:13;4.90;99.90
35970;DHT22;22448;51.298;6.430;2023-11-22T21:49:40;4.90;99.90
35970;DHT22;22448;51.298;6.430;2023-11-22T21:52:07;5.00;99.90
35970;DHT22;22448;51.298;6.430;2023-11-22T21:54:34;5.00;99.90
35970;DHT22;22448;51.298;6.430;2023-11-22T21:57:03;5.00;99.90
35970;DHT22;22448;51.298;6.430;2023-11-22T21:59:31;5.10;99.90
35970;DHT22;22448;51.298;6.430;2023-11-22T22:01:58;5.10;99.90
35970;DHT22;22448;51.298;6.430;2023-11-22T22:04:26;5.10;99.90
35970;DHT22;22448;51.298;6.430;2023-11-22T22:06:54;5.10;99.90
35970;DHT22;22448;51.298;6.430;2023-11-22T22:09:21;5.10;99.90
35970;DHT22;22448;51.298;6.430;2023-11-22T22:11:49;5.20;99.90
35970;DHT22;22448;51.298;6.430;2023-11-22T22:14:16;5.20;99.90
35970;DHT22;22448;51.298;6.430;2023-11-22T22:16:43;5.20;99.90
35970;DHT22;22448;51.298;6.430;2023-11-22T22:19:13;5.20;99.90
35970;DHT22;22448;51.298;6.430;2023-11-22T22:21:40;5.20;99.90
35970;DHT22;22448;51.298;6.430;2023-11-22T22:24:07;5.30;99.90
35970;DHT22;22448;51.298;6.430;2023-11-22T22:26:36;5.30;99.90
35970;DHT22;22448;51.298;6.430;2023-11-22T22:29:03;5.30;99.90
35970;DHT22;22448;51.298;6.430;2023-11-22T22:31:30;5.30;99.90
35970;DHT22;22448;51.298;6.430;2023-11-22T22:33:58;5.40;99.90
35970;DHT22;22448;51.298;6.430;2023-11-22T22:36:25;5.40;99.90
35970;DHT22;22448;51.298;6.430;2023-11-22T22:38:52;5.40;99.90
35970;DHT22;22448;51.298;6.430;2023-11-22T22:41:20;5.40;99.90
35970;DHT22;22448;51.298;6.430;2023-11-22T22:43:47;5.40;99.90
35970;DHT22;22448;51.298;6.430;2023-11-22T22:46:15;5.40;99.90
35970;DHT22;22448;51.298;6.430;2023-11-22T22:48:43;5.50;99.90
35970;DHT22;22448;51.298;6.430;2023-11-22T22:51:15;5.40;99.90
35970;DHT22;22448;51.298;6.430;2023-11-22T22:53:43;5.50;99.90
35970;DHT22;22448;51.298;6.430;2023-11-22T22:56:11;5.50;99.90
35970;DHT22;22448;51.298;6.430;2023-11-22T22:58:38;5.50;99.90
35970;DHT22;22448;51.298;6.430;2023-11-22T23:01:05;5.50;99.90
35970;DHT22;22448;51.298;6.430;2023-11-22T23:04:11;5.50;99.90
35970;DHT22;22448;51.298;6.430;2023-11-22T23:16:27;5.60;99.90
35970;DHT22;22448;51.298;6.430;2023-11-22T23:18:54;5.60;99.90
35970;DHT22;22448;51.298;6.430;2023-11-22T23:21:30;5.60;99.90
35970;DHT22;22448;51.298;6.430;2023-11-22T23:23:57;5.60;99.90
35970;DHT22;22448;51.298;6.430;2023-11-22T23:26:24;5.70;99.90
35970;DHT22;22448;51.298;6.430;2023-11-22T23:28:52;5.70;99.90
35970;DHT22;22448;51.298;6.430;2023-11-22T23:31:19;5.70;99.90
35970;DHT22;22448;51.298;6.430;2023-11-22T23:33:46;5.70;99.90
35970;DHT22;22448;51.298;6.430;2023-11-22T23:36:17;5.70;99.90
35970;DHT22;22448;51.298;6.430;2023-11-22T23:38:44;5.70;99.90
